createdAt,value
2019-01-29T00:00:35.594Z,0.30
2019-01-29T00:03:07.755Z,0.30
2019-01-29T00:05:38.265Z,0.30
2019-01-29T00:08:08.970Z,0.30
2019-01-29T00:10:39.645Z,0.20
2019-01-29T00:13:10.496Z,0.20
2019-01-29T00:15:41.015Z,0.20
2019-01-29T00:18:11.796Z,0.20
2019-01-29T00:20:42.378Z,0.20
2019-01-29T00:23:13.744Z,0.30
2019-01-29T00:25:44.444Z,0.30
2019-01-29T00:28:15.081Z,0.30
2019-01-29T00:30:46.610Z,0.30
2019-01-29T00:33:17.874Z,0.30
2019-01-29T00:35:48.494Z,0.20
2019-01-29T00:38:19.189Z,0.20
2019-01-29T00:40:49.911Z,0.30
2019-01-29T00:43:20.403Z,0.20
2019-01-29T00:45:51.101Z,0.20
2019-01-29T00:48:21.608Z,0.20
2019-01-29T00:50:52.083Z,0.10
2019-01-29T00:53:22.719Z,0.00
2019-01-29T00:55:53.340Z,0.00
2019-01-29T00:58:23.977Z,0.10
2019-01-29T01:00:54.519Z,0.00
2019-01-29T01:03:25.239Z,0.00
2019-01-29T01:05:55.823Z,0.00
2019-01-29T01:08:26.436Z,0.00
2019-01-29T01:10:56.987Z,0.00
2019-01-29T01:13:27.512Z,0.00
2019-01-29T01:15:58.069Z,0.00
2019-01-29T01:18:28.682Z,0.10
2019-01-29T01:20:59.194Z,0.10
2019-01-29T01:23:29.794Z,0.10
2019-01-29T01:26:00.339Z,0.10
2019-01-29T01:28:30.913Z,0.10
2019-01-29T01:31:01.529Z,0.10
2019-01-29T01:33:32.018Z,0.10
2019-01-29T01:36:02.569Z,0.00
2019-01-29T01:38:33.212Z,0.00
2019-01-29T01:41:03.910Z,0.00
2019-01-29T01:43:34.496Z,0.00
2019-01-29T01:46:05.120Z,0.00
2019-01-29T01:48:35.655Z,0.10
2019-01-29T01:51:06.365Z,0.10
2019-01-29T01:53:37.007Z,0.00
2019-01-29T01:56:07.588Z,0.00
2019-01-29T01:58:38.167Z,0.00
2019-01-29T02:01:08.779Z,0.00
2019-01-29T02:03:39.300Z,0.00
2019-01-29T02:06:09.892Z,0.00
2019-01-29T02:08:40.418Z,0.00
2019-01-29T02:11:11.039Z,0.00
2019-01-29T02:13:41.567Z,0.00
2019-01-29T02:16:12.084Z,0.00
2019-01-29T02:18:42.627Z,-0.10
2019-01-29T02:21:13.259Z,-0.10
2019-01-29T02:23:44.726Z,-0.10
2019-01-29T02:26:15.540Z,-0.20
2019-01-29T02:28:46.191Z,-0.10
2019-01-29T02:31:17.027Z,-0.20
2019-01-29T02:33:47.570Z,-0.30
2019-01-29T02:36:18.175Z,-0.30
2019-01-29T02:38:48.785Z,-0.30
2019-01-29T02:41:19.444Z,-0.20
2019-01-29T02:43:50.052Z,-0.30
2019-01-29T02:46:20.713Z,-0.30
2019-01-29T02:48:51.260Z,-0.20
2019-01-29T02:51:21.815Z,-0.30
2019-01-29T02:53:53.682Z,-0.40
2019-01-29T02:56:24.287Z,-0.40
2019-01-29T02:58:55.207Z,-0.40
2019-01-29T03:01:25.835Z,-0.40
2019-01-29T03:03:56.473Z,-0.40
2019-01-29T03:06:27.112Z,-0.50
2019-01-29T03:08:57.790Z,-0.40
2019-01-29T03:11:28.940Z,-0.40
2019-01-29T03:13:59.654Z,-0.40
2019-01-29T03:16:30.174Z,-0.40
2019-01-29T03:19:00.816Z,-0.40
2019-01-29T03:21:31.764Z,-0.40
2019-01-29T03:24:03.365Z,-0.40
2019-01-29T03:26:33.950Z,-0.40
2019-01-29T03:29:04.574Z,-0.40
2019-01-29T03:31:35.237Z,-0.40
2019-01-29T03:34:06.073Z,-0.30
2019-01-29T03:36:36.704Z,-0.30
2019-01-29T03:39:09.008Z,-0.30
2019-01-29T03:41:39.659Z,-0.30
2019-01-29T03:44:10.271Z,-0.40
2019-01-29T03:46:40.791Z,-0.30
2019-01-29T03:49:11.349Z,-0.30
2019-01-29T03:51:41.916Z,-0.30
2019-01-29T03:54:12.571Z,-0.40
2019-01-29T03:56:43.227Z,-0.40
2019-01-29T03:59:13.800Z,-0.40
2019-01-29T04:01:44.360Z,-0.50
2019-01-29T04:04:14.886Z,-0.50
2019-01-29T04:06:46.619Z,-0.50
2019-01-29T04:09:17.501Z,-0.50
2019-01-29T04:11:48.041Z,-0.50
2019-01-29T04:14:18.469Z,-0.50
2019-01-29T04:16:48.950Z,-0.50
2019-01-29T04:19:20.387Z,-0.50
2019-01-29T04:21:51.425Z,-0.50
2019-01-29T04:24:22.703Z,-0.50
2019-01-29T04:26:53.335Z,-0.40
2019-01-29T04:29:24.221Z,-0.40
2019-01-29T04:31:54.855Z,-0.40
2019-01-29T04:34:25.365Z,-0.40
2019-01-29T04:36:56.524Z,-0.40
2019-01-29T04:39:27.070Z,-0.40
2019-01-29T04:41:57.654Z,-0.40
2019-01-29T04:44:28.260Z,-0.40
2019-01-29T04:46:58.752Z,-0.40
2019-01-29T04:49:29.268Z,-0.40
2019-01-29T04:51:59.734Z,-0.40
2019-01-29T04:54:30.365Z,-0.40
2019-01-29T04:57:00.832Z,-0.40
2019-01-29T04:59:31.568Z,-0.40
2019-01-29T05:02:02.255Z,-0.40
2019-01-29T05:04:34.328Z,-0.40
2019-01-29T05:07:04.979Z,-0.40
2019-01-29T05:09:35.717Z,-0.40
2019-01-29T05:12:06.355Z,-0.40
2019-01-29T05:14:36.973Z,-0.40
2019-01-29T05:17:07.636Z,-0.40
2019-01-29T05:19:38.311Z,-0.40
2019-01-29T05:22:08.974Z,-0.40
2019-01-29T05:24:40.389Z,-0.40
2019-01-29T05:27:10.906Z,-0.40
2019-01-29T05:29:42.163Z,-0.40
2019-01-29T05:32:12.835Z,-0.40
2019-01-29T05:34:43.241Z,-0.50
2019-01-29T05:37:13.806Z,-0.40
2019-01-29T05:39:47.794Z,-0.50
2019-01-29T05:42:18.494Z,-0.50
2019-01-29T05:44:49.119Z,-0.50
2019-01-29T05:47:19.754Z,-0.50
2019-01-29T05:49:50.426Z,-0.40
2019-01-29T05:52:21.017Z,-0.40
2019-01-29T05:54:51.563Z,-0.50
2019-01-29T05:57:22.084Z,-0.40
2019-01-29T05:59:52.689Z,-0.50
2019-01-29T06:02:23.419Z,-0.40
2019-01-29T06:04:53.908Z,-0.40
2019-01-29T06:07:24.352Z,-0.40
2019-01-29T06:09:54.846Z,-0.40
2019-01-29T06:12:25.520Z,-0.40
2019-01-29T06:14:56.159Z,-0.50
2019-01-29T06:17:28.771Z,-0.40
2019-01-29T06:20:00.407Z,-0.40
2019-01-29T06:22:31.017Z,-0.40
2019-01-29T06:25:05.516Z,-0.40
2019-01-29T06:27:36.241Z,-0.40
2019-01-29T06:30:19.041Z,-0.30
2019-01-29T06:32:49.661Z,-0.40
2019-01-29T06:35:20.766Z,-0.30
2019-01-29T06:37:51.456Z,-0.30
2019-01-29T06:40:25.105Z,-0.20
2019-01-29T06:42:55.736Z,-0.30
2019-01-29T06:45:27.426Z,-0.20
2019-01-29T06:48:01.730Z,-0.20
2019-01-29T06:50:32.266Z,-0.10
2019-01-29T06:53:02.757Z,-0.20
2019-01-29T06:55:36.423Z,-0.20
2019-01-29T06:58:07.133Z,-0.20
2019-01-29T07:00:38.158Z,-0.20
2019-01-29T07:03:09.107Z,-0.20
2019-01-29T07:05:40.091Z,-0.10
2019-01-29T07:08:10.734Z,-0.10
2019-01-29T07:10:41.354Z,-0.10
2019-01-29T07:13:11.981Z,-0.10
2019-01-29T07:15:50.303Z,-0.10
2019-01-29T07:18:28.261Z,-0.10
2019-01-29T07:20:59.004Z,-0.10
2019-01-29T07:23:29.902Z,-0.10
2019-01-29T07:26:03.584Z,0.00
2019-01-29T07:28:34.337Z,0.00
2019-01-29T07:31:05.666Z,0.00
2019-01-29T07:33:36.260Z,0.00
2019-01-29T07:36:06.882Z,0.10
2019-01-29T07:38:37.466Z,0.10
2019-01-29T07:41:11.812Z,0.00
2019-01-29T07:43:44.450Z,0.00
2019-01-29T07:46:15.006Z,0.00
2019-01-29T07:48:45.571Z,0.00
2019-01-29T07:51:16.177Z,0.00
2019-01-29T07:53:47.120Z,0.00
2019-01-29T07:56:19.409Z,0.00
2019-01-29T07:58:49.975Z,0.10
2019-01-29T08:01:21.811Z,0.20
2019-01-29T08:03:52.826Z,0.20
2019-01-29T08:06:23.834Z,0.20
2019-01-29T08:08:54.448Z,0.10
2019-01-29T08:11:25.520Z,0.10
2019-01-29T08:13:56.288Z,0.10
2019-01-29T08:16:27.105Z,0.20
2019-01-29T08:18:57.708Z,0.20
2019-01-29T08:21:28.408Z,0.30
2019-01-29T08:23:59.116Z,0.30
2019-01-29T08:26:30.548Z,0.40
2019-01-29T08:29:01.173Z,0.50
2019-01-29T08:31:32.239Z,0.50
2019-01-29T08:34:07.210Z,0.50
2019-01-29T08:36:38.340Z,0.60
2019-01-29T08:39:09.995Z,0.70
2019-01-29T08:41:42.229Z,0.80
2019-01-29T08:44:14.451Z,0.90
2019-01-29T08:46:47.248Z,1.00
2019-01-29T08:49:19.478Z,1.10
2019-01-29T08:51:51.614Z,1.00
2019-01-29T08:54:24.432Z,1.00
2019-01-29T08:56:55.710Z,1.00
2019-01-29T08:59:34.108Z,1.00
2019-01-29T09:02:08.075Z,1.00
2019-01-29T09:04:42.290Z,1.10
2019-01-29T09:07:13.426Z,1.10
2019-01-29T09:09:47.560Z,1.00
2019-01-29T09:12:19.182Z,1.20
2019-01-29T09:14:50.808Z,1.40
2019-01-29T09:17:25.037Z,1.50
2019-01-29T09:19:55.872Z,1.60
2019-01-29T09:22:26.400Z,1.70
2019-01-29T09:24:56.960Z,1.80
2019-01-29T09:27:29.278Z,1.80
2019-01-29T09:30:00.239Z,1.80
2019-01-29T09:32:31.278Z,1.90
2019-01-29T09:35:01.809Z,1.90
2019-01-29T09:37:32.671Z,1.90
2019-01-29T09:40:03.329Z,1.90
2019-01-29T09:42:34.045Z,2.00
2019-01-29T09:45:06.293Z,2.00
2019-01-29T09:47:36.974Z,2.10
2019-01-29T09:50:12.067Z,2.10
2019-01-29T09:52:44.123Z,2.20
2019-01-29T09:55:17.931Z,2.20
2019-01-29T09:57:48.613Z,2.20
2019-01-29T10:00:30.727Z,2.10
2019-01-29T10:03:04.933Z,2.00
2019-01-29T10:05:35.506Z,1.90
2019-01-29T10:08:08.185Z,1.90
2019-01-29T10:10:38.797Z,1.90
2019-01-29T10:13:09.440Z,1.90
2019-01-29T10:15:41.015Z,2.00
2019-01-29T10:18:11.589Z,2.10
2019-01-29T10:20:42.501Z,2.10
2019-01-29T10:23:16.978Z,2.10
2019-01-29T10:25:48.086Z,2.10
2019-01-29T10:28:19.479Z,2.10
2019-01-29T10:30:51.531Z,2.10
2019-01-29T10:33:22.187Z,2.10
2019-01-29T10:35:52.722Z,2.10
2019-01-29T10:38:23.463Z,2.10
2019-01-29T10:40:57.279Z,2.20
2019-01-29T10:43:31.266Z,2.20
2019-01-29T10:46:01.849Z,2.30
2019-01-29T10:48:33.050Z,2.30
2019-01-29T10:51:03.742Z,2.30
2019-01-29T10:53:34.228Z,2.40
2019-01-29T10:56:04.915Z,2.40
2019-01-29T10:58:36.263Z,2.50
2019-01-29T11:01:07.064Z,2.60
2019-01-29T11:03:39.001Z,2.60
2019-01-29T11:06:09.577Z,2.70
2019-01-29T11:08:40.221Z,2.90
2019-01-29T11:11:10.733Z,2.90
2019-01-29T11:13:41.232Z,2.90
2019-01-29T11:16:11.667Z,3.00
2019-01-29T11:18:42.282Z,3.10
2019-01-29T11:21:12.870Z,3.10
2019-01-29T11:23:43.471Z,3.20
2019-01-29T11:26:14.052Z,3.20
2019-01-29T11:28:45.411Z,3.20
2019-01-29T11:31:16.006Z,3.30
2019-01-29T11:33:46.556Z,3.40
2019-01-29T11:36:17.290Z,3.50
2019-01-29T11:38:47.940Z,3.70
2019-01-29T11:41:21.931Z,3.90
2019-01-29T11:43:52.737Z,4.20
2019-01-29T11:46:23.433Z,4.50
2019-01-29T11:48:54.119Z,4.70
2019-01-29T11:51:27.044Z,4.70
2019-01-29T11:53:57.555Z,4.60
2019-01-29T11:56:28.193Z,4.90
2019-01-29T11:58:59.136Z,5.40
2019-01-29T12:01:29.676Z,5.70
2019-01-29T12:04:00.598Z,6.10
2019-01-29T12:06:33.812Z,6.20
2019-01-29T12:09:07.607Z,6.40
2019-01-29T12:11:39.192Z,6.40
2019-01-29T12:14:12.978Z,6.70
2019-01-29T12:16:44.530Z,6.80
2019-01-29T12:19:15.348Z,7.00
2019-01-29T12:21:46.086Z,7.10
2019-01-29T12:24:16.696Z,7.20
2019-01-29T12:26:47.310Z,7.20
2019-01-29T12:29:18.761Z,7.10
2019-01-29T12:31:49.289Z,7.10
2019-01-29T12:34:19.959Z,6.90
2019-01-29T12:36:50.955Z,6.70
2019-01-29T12:39:23.052Z,6.40
2019-01-29T12:41:53.471Z,6.10
2019-01-29T12:44:24.122Z,5.80
2019-01-29T12:46:54.869Z,5.70
2019-01-29T12:49:25.431Z,5.70
2019-01-29T12:51:57.457Z,5.70
2019-01-29T12:54:28.114Z,5.70
2019-01-29T12:56:58.721Z,5.70
2019-01-29T12:59:29.640Z,5.80
2019-01-29T13:02:00.111Z,5.80
2019-01-29T13:04:32.352Z,5.80
2019-01-29T13:07:02.925Z,5.80
2019-01-29T13:09:33.392Z,5.70
2019-01-29T13:12:04.111Z,5.80
2019-01-29T13:14:34.740Z,5.90
2019-01-29T13:17:05.527Z,6.00
2019-01-29T13:19:35.928Z,5.90
2019-01-29T13:22:06.502Z,5.80
2019-01-29T13:24:37.037Z,5.70
2019-01-29T13:27:07.543Z,5.70
2019-01-29T13:29:38.947Z,5.70
2019-01-29T13:32:09.527Z,5.80
2019-01-29T13:34:42.307Z,5.70
2019-01-29T13:37:13.825Z,5.70
2019-01-29T13:39:45.865Z,5.80
2019-01-29T13:42:18.174Z,5.80
2019-01-29T13:44:50.123Z,5.90
2019-01-29T13:47:20.634Z,5.90
2019-01-29T13:49:51.147Z,5.80
2019-01-29T13:52:21.521Z,5.90
2019-01-29T13:54:52.111Z,5.80
2019-01-29T13:57:22.702Z,5.70
2019-01-29T13:59:59.281Z,5.70
2019-01-29T14:02:36.119Z,5.60
2019-01-29T14:05:10.308Z,5.50
2019-01-29T14:07:44.052Z,5.40
2019-01-29T14:10:17.431Z,5.40
2019-01-29T14:12:48.125Z,5.40
2019-01-29T14:15:27.676Z,5.30
2019-01-29T14:17:58.266Z,5.20
2019-01-29T14:20:29.725Z,5.10
2019-01-29T14:23:01.499Z,5.10
2019-01-29T14:25:32.080Z,5.00
2019-01-29T14:28:02.709Z,4.90
2019-01-29T14:30:35.011Z,4.90
2019-01-29T14:33:07.022Z,4.80
2019-01-29T14:35:37.655Z,4.70
2019-01-29T14:38:21.159Z,4.60
2019-01-29T14:40:51.851Z,4.50
2019-01-29T14:43:30.025Z,4.50
2019-01-29T14:46:01.064Z,4.40
2019-01-29T14:48:31.875Z,4.50
2019-01-29T14:51:02.541Z,4.40
2019-01-29T14:53:33.176Z,4.40
2019-01-29T14:56:03.772Z,4.30
2019-01-29T14:58:34.411Z,4.30
2019-01-29T15:01:06.350Z,4.30
2019-01-29T15:03:37.035Z,4.30
2019-01-29T15:06:08.011Z,4.20
2019-01-29T15:08:40.722Z,4.10
2019-01-29T15:11:11.571Z,4.10
2019-01-29T15:13:42.293Z,4.10
2019-01-29T15:16:17.667Z,4.10
2019-01-29T15:18:52.827Z,4.00
2019-01-29T15:21:23.453Z,4.00
2019-01-29T15:23:54.048Z,3.90
2019-01-29T15:26:25.029Z,3.90
2019-01-29T15:28:55.598Z,3.90
2019-01-29T15:31:27.061Z,3.80
2019-01-29T15:33:57.688Z,3.80
2019-01-29T15:36:29.723Z,3.70
2019-01-29T15:39:00.197Z,3.70
2019-01-29T15:41:30.858Z,3.60
2019-01-29T15:44:01.537Z,3.60
2019-01-29T15:46:32.465Z,3.60
2019-01-29T15:49:03.348Z,3.60
2019-01-29T15:51:34.332Z,3.60
2019-01-29T15:54:05.309Z,3.60
2019-01-29T15:56:36.002Z,3.60
2019-01-29T15:59:06.862Z,3.50
2019-01-29T16:01:39.332Z,3.50
2019-01-29T16:04:09.939Z,3.40
2019-01-29T16:06:40.570Z,3.40
2019-01-29T16:09:11.400Z,3.40
2019-01-29T16:11:42.063Z,3.40
2019-01-29T16:14:12.593Z,3.30
2019-01-29T16:16:43.135Z,3.40
2019-01-29T16:19:13.782Z,3.30
2019-01-29T16:21:44.356Z,3.30
2019-01-29T16:24:15.001Z,3.20
2019-01-29T16:26:46.769Z,3.20
2019-01-29T16:29:17.260Z,3.20
2019-01-29T16:31:48.620Z,3.20
2019-01-29T16:34:20.239Z,3.20
2019-01-29T16:36:50.756Z,3.10
2019-01-29T16:39:21.391Z,3.10
2019-01-29T16:41:52.018Z,3.10
2019-01-29T16:44:22.732Z,3.10
2019-01-29T16:46:53.586Z,3.10
2019-01-29T16:49:24.193Z,3.10
2019-01-29T16:51:54.748Z,3.10
2019-01-29T16:54:25.463Z,3.00
2019-01-29T16:56:56.015Z,3.00
2019-01-29T16:59:26.529Z,3.00
2019-01-29T17:01:57.272Z,3.00
2019-01-29T17:04:28.556Z,3.00
2019-01-29T17:06:59.241Z,3.00
2019-01-29T17:09:29.942Z,2.90
2019-01-29T17:12:01.063Z,2.80
2019-01-29T17:14:31.482Z,2.90
2019-01-29T17:17:02.017Z,2.80
2019-01-29T17:19:32.872Z,2.80
2019-01-29T17:22:03.538Z,2.70
2019-01-29T17:24:34.021Z,2.70
2019-01-29T17:27:04.807Z,2.70
2019-01-29T17:29:35.498Z,2.70
2019-01-29T17:32:07.615Z,2.60
2019-01-29T17:34:38.236Z,2.60
2019-01-29T17:37:08.886Z,2.60
2019-01-29T17:39:39.488Z,2.50
2019-01-29T17:42:10.183Z,2.50
2019-01-29T17:44:40.815Z,2.50
2019-01-29T17:47:11.396Z,2.50
2019-01-29T17:49:43.045Z,2.50
2019-01-29T17:52:14.274Z,2.40
2019-01-29T17:54:44.746Z,2.50
2019-01-29T17:57:15.730Z,2.50
2019-01-29T17:59:46.331Z,2.50
2019-01-29T18:02:17.194Z,2.40
2019-01-29T18:04:50.478Z,2.50
2019-01-29T18:07:28.976Z,2.40
2019-01-29T18:09:59.887Z,2.40
2019-01-29T18:12:32.606Z,2.40
2019-01-29T18:15:06.513Z,2.30
2019-01-29T18:17:37.704Z,2.40
2019-01-29T18:20:12.092Z,2.40
2019-01-29T18:22:43.611Z,2.30
2019-01-29T18:25:17.079Z,2.30
2019-01-29T18:27:47.803Z,2.30
2019-01-29T18:30:35.322Z,2.30
2019-01-29T18:33:06.780Z,2.30
2019-01-29T18:35:37.413Z,2.40
2019-01-29T18:38:08.048Z,2.30
2019-01-29T18:40:43.481Z,2.30
2019-01-29T18:43:14.027Z,2.20
2019-01-29T18:45:44.636Z,2.20
2019-01-29T18:48:15.799Z,2.20
2019-01-29T18:50:46.461Z,2.20
2019-01-29T18:53:17.415Z,2.20
2019-01-29T18:55:47.899Z,2.20
2019-01-29T18:58:18.552Z,2.10
2019-01-29T19:00:54.801Z,2.10
2019-01-29T19:03:23.348Z,2.00
2019-01-29T19:05:54.125Z,2.10
2019-01-29T19:08:24.775Z,2.10
2019-01-29T19:10:55.494Z,2.10
2019-01-29T19:13:26.699Z,2.00
2019-01-29T19:15:57.256Z,2.00
2019-01-29T19:18:27.923Z,2.00
2019-01-29T19:20:58.419Z,2.00
2019-01-29T19:23:29.373Z,1.90
2019-01-29T19:26:00.057Z,1.90
2019-01-29T19:28:31.454Z,1.90
2019-01-29T19:31:02.015Z,1.80
2019-01-29T19:33:33.316Z,1.80
2019-01-29T19:36:04.027Z,1.80
2019-01-29T19:38:34.678Z,1.90
2019-01-29T19:41:05.351Z,1.90
2019-01-29T19:43:36.084Z,1.90
2019-01-29T19:46:06.744Z,1.90
2019-01-29T19:48:37.424Z,1.90
2019-01-29T19:51:09.145Z,1.80
2019-01-29T19:53:40.716Z,1.80
2019-01-29T19:56:11.700Z,1.80
2019-01-29T19:58:43.208Z,1.70
2019-01-29T20:01:13.800Z,1.70
2019-01-29T20:03:44.479Z,1.70
2019-01-29T20:06:15.188Z,1.70
2019-01-29T20:08:45.829Z,1.60
2019-01-29T20:11:16.531Z,1.60
2019-01-29T20:13:47.192Z,1.60
2019-01-29T20:16:17.848Z,1.60
2019-01-29T20:18:49.048Z,1.60
2019-01-29T20:21:21.567Z,1.60
2019-01-29T20:23:52.095Z,1.60
2019-01-29T20:26:22.674Z,1.60
2019-01-29T20:28:53.440Z,1.50
2019-01-29T20:31:24.207Z,1.50
2019-01-29T20:33:55.632Z,1.50
2019-01-29T20:36:27.212Z,1.50
2019-01-29T20:38:57.822Z,1.50
2019-01-29T20:41:28.395Z,1.50
2019-01-29T20:43:59.506Z,1.50
2019-01-29T20:46:30.038Z,1.50
2019-01-29T20:49:00.656Z,1.50
2019-01-29T20:51:32.236Z,1.50
2019-01-29T20:54:03.162Z,1.50
2019-01-29T20:56:33.780Z,1.40
2019-01-29T20:59:04.551Z,1.40
2019-01-29T21:01:35.296Z,1.40
2019-01-29T21:04:06.220Z,1.40
2019-01-29T21:06:37.344Z,1.40
2019-01-29T21:09:09.555Z,1.40
2019-01-29T21:11:40.237Z,1.40
2019-01-29T21:14:10.836Z,1.40
2019-01-29T21:16:42.383Z,1.30
2019-01-29T21:19:13.066Z,1.30
2019-01-29T21:21:43.843Z,1.20
2019-01-29T21:24:14.719Z,1.20
2019-01-29T21:26:45.861Z,1.10
2019-01-29T21:29:16.472Z,1.10
2019-01-29T21:31:46.931Z,1.00
2019-01-29T21:34:19.308Z,1.00
2019-01-29T21:36:49.945Z,1.00
2019-01-29T21:39:20.543Z,1.00
2019-01-29T21:41:51.110Z,0.90
2019-01-29T21:44:21.688Z,0.90
2019-01-29T21:46:52.362Z,0.90
2019-01-29T21:49:23.032Z,0.80
2019-01-29T21:51:53.565Z,0.80
2019-01-29T21:54:24.186Z,0.80
2019-01-29T21:56:54.676Z,0.80
2019-01-29T21:59:25.381Z,0.80
2019-01-29T22:01:56.214Z,0.80
2019-01-29T22:04:26.951Z,0.80
2019-01-29T22:06:57.958Z,0.70
2019-01-29T22:09:28.566Z,0.70
2019-01-29T22:11:59.622Z,0.70
2019-01-29T22:14:30.243Z,0.70
2019-01-29T22:17:00.640Z,0.60
2019-01-29T22:19:31.189Z,0.60
2019-01-29T22:22:01.760Z,0.60
2019-01-29T22:24:33.418Z,0.60
2019-01-29T22:27:03.946Z,0.50
2019-01-29T22:29:35.165Z,0.50
2019-01-29T22:32:06.476Z,0.40
2019-01-29T22:34:37.855Z,0.40
2019-01-29T22:37:08.561Z,0.40
2019-01-29T22:39:39.218Z,0.40
2019-01-29T22:42:09.740Z,0.40
2019-01-29T22:44:40.287Z,0.30
2019-01-29T22:47:10.787Z,0.30
2019-01-29T22:49:41.270Z,0.30
2019-01-29T22:52:12.054Z,0.30
2019-01-29T22:54:50.184Z,0.20
2019-01-29T22:57:20.804Z,0.30
2019-01-29T22:59:51.510Z,0.20
2019-01-29T23:02:22.136Z,0.20
2019-01-29T23:04:52.946Z,0.10
2019-01-29T23:07:23.602Z,0.10
2019-01-29T23:09:55.057Z,0.10
2019-01-29T23:12:25.657Z,0.10
2019-01-29T23:14:56.387Z,0.10
2019-01-29T23:17:27.086Z,0.10
2019-01-29T23:19:57.670Z,0.10
2019-01-29T23:22:28.344Z,0.10
2019-01-29T23:24:58.912Z,0.00
2019-01-29T23:27:29.433Z,0.00
2019-01-29T23:30:00.864Z,0.00
2019-01-29T23:32:31.494Z,0.00
2019-01-29T23:35:02.880Z,0.00
2019-01-29T23:37:33.420Z,0.00
2019-01-29T23:40:05.801Z,0.00
2019-01-29T23:42:36.373Z,-0.10
2019-01-29T23:45:11.231Z,-0.10
2019-01-29T23:47:41.848Z,-0.10
2019-01-29T23:50:15.380Z,-0.20
2019-01-29T23:52:46.207Z,-0.20
2019-01-29T23:55:16.873Z,-0.20
2019-01-29T23:57:47.410Z,-0.20
